Time;durP1;ratioP1;P1;durP2;ratioP2;P2;SDS_P1;SDS_P2;PMS_P1;PMS_P2;Temp;Humidity;BMP_temperature;BMP_pressure;BME280_temperature;BME280_humidity;BME280_pressure;Samples;Min_cycle;Max_cycle;Signal;HPM_P1;HPM_P2
2022/10/15 00:00:32;;;;;;;51.00;31.83;;;12.30;99.90;;;;;;5052912;28;20506;-80
2022/10/15 00:02:58;;;;;;;53.72;31.58;;;12.30;99.90;;;;;;5052323;28;20131;-80
2022/10/15 00:05:23;;;;;;;58.67;34.17;;;12.30;99.90;;;;;;5052689;28;20043;-80
2022/10/15 00:07:49;;;;;;;59.70;35.10;;;12.30;99.90;;;;;;5053058;28;20132;-80
2022/10/15 00:10:15;;;;;;;56.92;34.28;;;12.30;99.90;;;;;;5052702;28;20044;-80
2022/10/15 00:12:41;;;;;;;56.75;33.58;;;12.30;99.90;;;;;;5052552;28;20045;-80
2022/10/15 00:15:07;;;;;;;58.50;33.55;;;12.30;99.90;;;;;;5036411;28;20039;-80
2022/10/15 00:17:34;;;;;;;58.30;33.30;;;12.30;99.90;;;;;;5052839;28;20037;-80
2022/10/15 00:20:00;;;;;;;53.10;33.53;;;12.30;99.90;;;;;;5036171;28;20514;-80
2022/10/15 00:22:25;;;;;;;55.30;32.70;;;12.30;99.90;;;;;;5052587;28;20037;-79
2022/10/15 00:24:51;;;;;;;51.40;32.67;;;12.30;99.90;;;;;;5035541;28;20086;-80
2022/10/15 00:27:16;;;;;;;57.15;32.83;;;12.30;99.90;;;;;;5035881;28;20048;-80
2022/10/15 00:29:42;;;;;;;54.67;32.35;;;12.30;99.90;;;;;;5035723;28;20094;-80
2022/10/15 00:32:08;;;;;;;54.67;31.95;;;12.30;99.90;;;;;;5035250;28;20556;-80
2022/10/15 00:34:33;;;;;;;50.78;32.25;;;12.30;99.90;;;;;;5052226;28;20033;-80
2022/10/15 00:36:59;;;;;;;53.22;32.35;;;12.30;99.90;;;;;;5026277;28;20048;-80
2022/10/15 00:39:24;;;;;;;56.03;34.72;;;12.30;99.90;;;;;;5035815;28;20037;-81
2022/10/15 00:41:50;;;;;;;53.17;33.13;;;12.30;99.90;;;;;;5051833;28;20124;-80
2022/10/15 00:44:25;;;;;;;48.03;29.90;;;12.30;99.90;;;;;;5052074;28;20041;-80
2022/10/15 00:47:04;;;;;;;54.08;32.80;;;12.20;99.90;;;;;;5035507;28;20064;-80
2022/10/15 00:49:34;;;;;;;53.83;32.90;;;12.30;99.90;;;;;;5035642;28;20166;-80
2022/10/15 00:52:09;;;;;;;56.85;33.53;;;12.20;99.90;;;;;;5035143;28;20045;-81
2022/10/15 00:54:43;;;;;;;50.72;32.25;;;12.20;99.90;;;;;;5052155;28;20048;-80
2022/10/15 00:57:10;;;;;;;56.42;33.25;;;12.20;99.90;;;;;;5035352;28;20036;-80
2022/10/15 00:59:46;;;;;;;54.60;32.65;;;12.20;99.90;;;;;;5035177;28;20072;-80
2022/10/15 01:02:12;;;;;;;50.45;31.30;;;12.20;99.90;;;;;;5034792;28;20045;-80
2022/10/15 01:04:39;;;;;;;49.85;32.75;;;12.20;99.90;;;;;;5051255;28;20140;-80
2022/10/15 01:07:06;;;;;;;49.17;31.45;;;12.20;99.90;;;;;;5051791;28;20040;-80
2022/10/15 01:09:32;;;;;;;55.88;31.67;;;12.20;99.90;;;;;;5051502;28;20230;-80
2022/10/15 01:11:57;;;;;;;52.10;31.88;;;12.20;99.90;;;;;;5051421;28;20564;-80
2022/10/15 01:14:41;;;;;;;54.78;32.33;;;12.20;99.90;;;;;;5051734;28;20115;-80
2022/10/15 01:17:21;;;;;;;52.70;32.33;;;12.20;99.90;;;;;;5051675;28;20037;-80
2022/10/15 01:20:07;;;;;;;57.47;32.50;;;12.20;99.90;;;;;;5051694;28;20045;-80
2022/10/15 01:23:01;;;;;;;51.40;31.17;;;12.20;99.90;;;;;;5051813;28;20071;-80
2022/10/15 01:25:29;;;;;;;53.67;29.87;;;12.20;99.90;;;;;;5051749;28;20120;-81
2022/10/15 01:28:36;;;;;;;51.83;32.35;;;12.20;99.90;;;;;;5051593;28;20128;-80
2022/10/15 01:31:26;;;;;;;48.55;29.63;;;12.20;99.90;;;;;;5031006;28;20049;-80
2022/10/15 01:34:10;;;;;;;48.70;29.83;;;12.20;99.90;;;;;;5034931;28;20041;-80
2022/10/15 01:37:05;;;;;;;52.15;30.42;;;12.10;99.90;;;;;;5051339;28;20449;-80
2022/10/15 01:39:33;;;;;;;52.38;29.33;;;12.10;99.90;;;;;;5034502;28;20043;-81
2022/10/15 01:42:16;;;;;;;48.80;29.17;;;12.20;99.90;;;;;;5051649;28;20045;-80
2022/10/15 01:44:49;;;;;;;46.78;29.25;;;12.20;99.90;;;;;;5051307;28;20071;-80
2022/10/15 01:47:31;;;;;;;51.45;29.25;;;12.20;99.90;;;;;;5034446;28;20055;-80
2022/10/15 01:49:59;;;;;;;50.38;29.92;;;12.10;99.90;;;;;;5034581;28;20051;-80
2022/10/15 01:52:29;;;;;;;45.30;27.55;;;12.20;99.90;;;;;;5050491;28;20410;-80
2022/10/15 01:54:55;;;;;;;47.88;29.23;;;12.10;99.90;;;;;;5034208;28;20490;-79
2022/10/15 01:57:24;;;;;;;48.47;30.77;;;12.10;99.90;;;;;;5050918;28;20086;-80
2022/10/15 01:59:51;;;;;;;53.47;31.25;;;12.10;99.90;;;;;;5034252;28;20083;-80
2022/10/15 02:02:16;;;;;;;48.63;29.88;;;12.10;99.90;;;;;;5050709;28;20055;-80
2022/10/15 02:04:42;;;;;;;51.85;29.85;;;12.10;99.90;;;;;;5051265;28;20041;-81
2022/10/15 02:07:14;;;;;;;47.75;28.67;;;12.10;99.90;;;;;;5034863;28;20045;-80
2022/10/15 02:10:04;;;;;;;51.25;29.83;;;12.10;99.90;;;;;;5050674;28;20047;-80
2022/10/15 02:12:41;;;;;;;48.35;29.60;;;12.10;99.90;;;;;;5034398;28;20712;-80
2022/10/15 02:15:29;;;;;;;47.17;28.75;;;12.10;99.90;;;;;;5034314;28;20037;-81
2022/10/15 02:18:15;;;;;;;54.60;29.35;;;12.10;99.90;;;;;;5051265;28;20036;-80
2022/10/15 02:21:00;;;;;;;45.70;27.95;;;12.10;99.90;;;;;;5051049;28;20118;-80
2022/10/15 02:23:50;;;;;;;47.08;28.15;;;12.10;99.90;;;;;;5050965;28;20045;-80
2022/10/15 02:26:16;;;;;;;47.60;30.55;;;12.10;99.90;;;;;;5051148;28;20049;-80
2022/10/15 02:28:49;;;;;;;53.38;29.85;;;12.10;99.90;;;;;;5050876;28;20043;-80
2022/10/15 02:31:17;;;;;;;47.60;28.10;;;12.10;99.90;;;;;;5034468;28;20055;-81
2022/10/15 02:33:45;;;;;;;47.85;29.65;;;12.10;99.90;;;;;;5050521;28;20052;-80
2022/10/15 02:36:11;;;;;;;49.33;29.35;;;12.10;99.90;;;;;;5050945;28;20025;-80
2022/10/15 02:38:41;;;;;;;45.90;28.08;;;12.10;99.90;;;;;;5048506;28;20044;-81
2022/10/15 02:41:08;;;;;;;52.88;30.00;;;12.10;99.90;;;;;;5034290;28;20120;-81
2022/10/15 02:43:35;;;;;;;49.17;30.05;;;12.10;99.90;;;;;;5050731;28;20549;-81
2022/10/15 02:46:00;;;;;;;49.60;29.90;;;12.10;99.90;;;;;;5034070;28;20032;-81
2022/10/15 02:48:26;;;;;;;49.60;30.52;;;12.10;99.90;;;;;;5050630;28;20044;-80
2022/10/15 02:50:52;;;;;;;51.80;29.63;;;12.10;99.90;;;;;;5051995;28;20041;-82
2022/10/15 02:53:17;;;;;;;46.15;29.38;;;12.00;99.90;;;;;;5054251;28;20046;-80
2022/10/15 02:55:43;;;;;;;51.60;30.30;;;12.10;99.90;;;;;;5053974;28;20113;-80
2022/10/15 02:58:08;;;;;;;46.58;29.35;;;12.00;99.90;;;;;;5037344;28;20723;-80
2022/10/15 03:00:34;;;;;;;47.22;27.58;;;12.00;99.90;;;;;;5054264;28;20086;-80
2022/10/15 03:02:59;;;;;;;44.85;28.10;;;12.00;99.90;;;;;;5037065;28;20125;-80
2022/10/15 03:05:25;;;;;;;46.85;27.50;;;12.00;99.90;;;;;;5054099;28;20052;-80
2022/10/15 03:07:50;;;;;;;44.28;28.95;;;12.10;99.90;;;;;;5037569;28;20072;-80
2022/10/15 03:10:16;;;;;;;49.45;28.50;;;12.00;99.90;;;;;;5053913;28;20048;-80
2022/10/15 03:12:42;;;;;;;53.03;30.05;;;12.00;99.90;;;;;;5037423;28;20051;-81
2022/10/15 03:15:07;;;;;;;52.03;29.02;;;12.00;99.90;;;;;;5053609;28;20035;-81
2022/10/15 03:17:33;;;;;;;46.08;28.58;;;12.00;99.90;;;;;;5054227;28;20409;-81
2022/10/15 03:19:59;;;;;;;45.65;28.02;;;12.00;99.90;;;;;;5053637;28;20121;-80
2022/10/15 03:22:24;;;;;;;45.92;29.65;;;12.00;99.90;;;;;;5036756;28;20045;-81
2022/10/15 03:24:50;;;;;;;51.67;29.38;;;12.00;99.90;;;;;;5036915;28;20041;-80
2022/10/15 03:27:15;;;;;;;46.70;29.05;;;12.00;99.90;;;;;;5053396;28;20065;-80
2022/10/15 03:29:41;;;;;;;46.83;28.80;;;11.90;99.90;;;;;;5053241;28;20037;-80
2022/10/15 03:32:06;;;;;;;47.20;28.67;;;12.00;99.90;;;;;;5036392;28;20041;-81
2022/10/15 03:34:32;;;;;;;46.65;27.90;;;12.00;99.90;;;;;;5053573;28;20099;-80
2022/10/15 03:36:57;;;;;;;48.92;28.48;;;11.90;99.90;;;;;;5053504;28;20482;-80
2022/10/15 03:39:23;;;;;;;47.85;28.27;;;11.90;99.90;;;;;;5053786;28;20033;-80
2022/10/15 03:41:51;;;;;;;48.20;28.77;;;12.00;99.90;;;;;;5036311;28;20128;-80
2022/10/15 03:44:17;;;;;;;47.35;27.77;;;12.00;99.90;;;;;;5052998;28;20045;-80
2022/10/15 03:46:42;;;;;;;49.35;28.45;;;12.00;99.90;;;;;;5053095;28;20048;-80
2022/10/15 03:49:08;;;;;;;50.13;29.80;;;12.00;99.90;;;;;;5053089;28;20518;-80
2022/10/15 03:51:33;;;;;;;48.17;29.55;;;12.00;99.90;;;;;;5052601;28;20041;-81
2022/10/15 03:53:59;;;;;;;51.55;28.25;;;12.00;99.90;;;;;;5036539;28;20040;-81
2022/10/15 03:56:24;;;;;;;53.45;30.10;;;12.00;99.90;;;;;;5036695;28;20044;-81
2022/10/15 03:58:50;;;;;;;55.85;29.33;;;12.00;99.90;;;;;;5052838;28;20122;-80
2022/10/15 04:01:17;;;;;;;54.78;29.20;;;12.00;99.90;;;;;;5051959;28;20086;-80
2022/10/15 04:03:43;;;;;;;54.30;30.00;;;12.00;99.90;;;;;;5052461;28;20037;-80
2022/10/15 04:06:09;;;;;;;44.15;28.95;;;12.00;99.90;;;;;;5052999;28;20041;-80
2022/10/15 04:08:34;;;;;;;53.65;30.65;;;12.00;99.90;;;;;;5052670;28;20082;-80
2022/10/15 04:11:00;;;;;;;53.20;30.17;;;12.00;99.90;;;;;;5052767;28;20041;-81
2022/10/15 04:13:27;;;;;;;50.67;30.17;;;12.00;99.90;;;;;;5052678;28;20045;-80
2022/10/15 04:15:53;;;;;;;55.08;30.10;;;12.00;99.90;;;;;;5053141;28;20120;-81
2022/10/15 04:18:20;;;;;;;49.97;28.60;;;12.00;99.90;;;;;;5052634;28;20506;-80
2022/10/15 04:20:46;;;;;;;53.70;29.33;;;12.00;99.90;;;;;;5052962;28;20037;-80
2022/10/15 04:23:12;;;;;;;55.53;30.45;;;12.00;99.90;;;;;;5052604;28;20037;-81
2022/10/15 04:25:37;;;;;;;51.17;30.27;;;12.00;99.90;;;;;;5052789;28;20391;-79
2022/10/15 04:28:03;;;;;;;56.05;31.33;;;12.00;99.90;;;;;;5053089;28;20045;-81
2022/10/15 04:30:29;;;;;;;50.92;30.67;;;12.00;99.90;;;;;;5052602;28;20170;-80
2022/10/15 04:32:54;;;;;;;48.83;30.20;;;12.00;99.90;;;;;;5052398;28;20686;-80
2022/10/15 04:35:20;;;;;;;48.35;29.23;;;12.00;99.90;;;;;;5035840;28;20048;-80
2022/10/15 04:37:45;;;;;;;61.80;33.42;;;11.90;99.90;;;;;;5033033;28;20095;-80
2022/10/15 04:40:12;;;;;;;58.40;30.52;;;11.90;99.90;;;;;;5045793;28;20037;-80
2022/10/15 04:42:38;;;;;;;57.90;30.60;;;11.90;99.90;;;;;;5035708;28;20045;-80
2022/10/15 04:45:05;;;;;;;57.50;31.10;;;11.90;99.90;;;;;;5035734;28;20044;-80
2022/10/15 04:47:30;;;;;;;53.72;30.30;;;11.90;99.90;;;;;;5036042;28;20040;-80
2022/10/15 04:49:56;;;;;;;55.92;30.67;;;11.90;99.90;;;;;;5052962;28;20730;-80
2022/10/15 04:52:22;;;;;;;57.33;30.00;;;11.90;99.90;;;;;;5052046;28;20037;-81
2022/10/15 04:54:47;;;;;;;55.70;30.95;;;11.90;99.90;;;;;;5052803;28;20091;-81
2022/10/15 04:57:13;;;;;;;47.92;28.95;;;11.90;99.90;;;;;;5035679;28;20037;-80
2022/10/15 04:59:39;;;;;;;52.80;29.35;;;11.90;99.90;;;;;;5052311;28;20045;-80
2022/10/15 05:02:04;;;;;;;47.30;28.85;;;11.90;99.90;;;;;;5035508;28;20040;-80
2022/10/15 05:04:30;;;;;;;52.30;29.75;;;11.80;99.90;;;;;;5038335;28;20410;-81
2022/10/15 05:06:55;;;;;;;47.90;29.67;;;11.80;99.90;;;;;;5038042;28;20040;-81
2022/10/15 05:09:21;;;;;;;46.90;29.17;;;11.80;99.90;;;;;;5052019;28;20497;-81
2022/10/15 05:11:46;;;;;;;53.95;31.27;;;11.80;99.90;;;;;;5035324;28;20037;-81
2022/10/15 05:14:12;;;;;;;50.95;29.77;;;11.80;99.90;;;;;;5051590;28;20116;-80
2022/10/15 05:16:37;;;;;;;53.25;29.63;;;11.80;99.90;;;;;;5035163;28;20036;-80
2022/10/15 05:19:06;;;;;;;49.55;29.77;;;11.80;99.90;;;;;;5052343;28;20112;-81
2022/10/15 05:21:33;;;;;;;51.63;28.98;;;11.80;99.90;;;;;;5051753;28;20040;-81
2022/10/15 05:23:59;;;;;;;50.75;29.98;;;11.70;99.90;;;;;;5051993;28;20091;-80
2022/10/15 05:26:27;;;;;;;53.30;30.73;;;11.70;99.90;;;;;;5051980;28;20040;-80
2022/10/15 05:28:54;;;;;;;53.13;29.80;;;11.70;99.90;;;;;;5051672;28;20115;-80
2022/10/15 05:31:21;;;;;;;50.78;30.90;;;11.70;99.90;;;;;;5035333;28;20409;-80
2022/10/15 05:33:48;;;;;;;53.85;31.85;;;11.70;99.90;;;;;;5034686;28;20075;-80
2022/10/15 05:36:17;;;;;;;51.90;31.75;;;11.70;99.90;;;;;;5051803;28;20574;-80
2022/10/15 05:38:44;;;;;;;51.92;30.13;;;11.70;99.90;;;;;;5051719;28;20115;-80
2022/10/15 05:41:10;;;;;;;52.58;33.00;;;11.70;99.90;;;;;;5051233;28;20029;-81
2022/10/15 05:43:35;;;;;;;56.78;31.98;;;11.70;99.90;;;;;;5051688;28;20039;-80
2022/10/15 05:46:01;;;;;;;55.60;32.13;;;11.70;99.90;;;;;;5051438;28;20033;-80
2022/10/15 05:48:26;;;;;;;57.20;32.70;;;11.70;99.90;;;;;;5035351;28;20045;-80
2022/10/15 05:50:53;;;;;;;61.08;33.80;;;11.60;99.90;;;;;;5051145;28;20395;-80
2022/10/15 05:53:18;;;;;;;57.72;32.13;;;11.70;99.90;;;;;;5035269;28;20514;-80
2022/10/15 05:55:44;;;;;;;63.58;35.97;;;11.70;99.90;;;;;;5051265;28;20167;-80
2022/10/15 05:58:10;;;;;;;63.50;34.08;;;11.70;99.90;;;;;;5051204;28;20485;-81
2022/10/15 06:00:35;;;;;;;63.83;34.42;;;11.60;99.90;;;;;;5051582;28;20036;-81
2022/10/15 06:03:01;;;;;;;62.42;35.25;;;11.60;99.90;;;;;;5051597;28;20040;-80
2022/10/15 06:05:26;;;;;;;64.40;35.30;;;11.60;99.90;;;;;;5051919;28;20037;-80
2022/10/15 06:07:52;;;;;;;67.05;36.20;;;11.60;99.90;;;;;;5035157;28;20045;-81
2022/10/15 06:10:18;;;;;;;64.68;36.92;;;11.70;99.90;;;;;;5051386;28;20450;-80
2022/10/15 06:12:51;;;;;;;68.10;37.08;;;11.60;99.90;;;;;;5050851;28;20040;-81
2022/10/15 06:15:17;;;;;;;70.90;36.92;;;11.60;99.90;;;;;;5051258;28;20099;-79
2022/10/15 06:17:43;;;;;;;69.88;37.22;;;11.70;99.90;;;;;;5051150;28;20076;-81
2022/10/15 06:20:09;;;;;;;70.80;37.72;;;11.70;99.90;;;;;;5034951;28;20072;-81
2022/10/15 06:22:35;;;;;;;70.80;37.95;;;11.70;99.90;;;;;;5035005;28;20033;-80
2022/10/15 06:25:00;;;;;;;69.95;38.60;;;11.70;99.90;;;;;;5036329;28;20037;-81
2022/10/15 06:27:26;;;;;;;70.22;38.60;;;11.70;99.90;;;;;;5055380;28;20485;-81
2022/10/15 06:29:51;;;;;;;79.90;40.33;;;11.70;99.90;;;;;;5038862;28;20626;-80
2022/10/15 06:32:17;;;;;;;68.10;38.15;;;11.70;99.90;;;;;;5038455;28;20037;-80
2022/10/15 06:34:43;;;;;;;70.05;39.17;;;11.80;99.90;;;;;;5055206;28;20041;-81
2022/10/15 06:37:09;;;;;;;75.78;40.22;;;11.80;99.90;;;;;;5054945;28;20043;-81
2022/10/15 06:39:34;;;;;;;74.70;38.53;;;11.80;99.90;;;;;;5046070;28;20033;-80
2022/10/15 06:42:00;;;;;;;75.85;39.60;;;11.80;99.90;;;;;;5049452;28;20040;-80
2022/10/15 06:44:25;;;;;;;67.43;37.42;;;11.80;99.90;;;;;;5055206;28;20049;-81
2022/10/15 06:46:51;;;;;;;73.15;39.67;;;11.80;99.90;;;;;;5054984;28;20046;-80
2022/10/15 06:49:16;;;;;;;78.13;40.10;;;11.80;99.90;;;;;;5055147;28;20079;-80
2022/10/15 06:51:42;;;;;;;77.22;39.85;;;11.80;99.90;;;;;;5037819;28;20040;-79
2022/10/15 06:54:07;;;;;;;74.95;37.83;;;11.80;99.90;;;;;;5037892;28;20407;-80
2022/10/15 06:56:33;;;;;;;80.43;40.08;;;11.80;99.90;;;;;;5039062;28;20467;-80
2022/10/15 06:58:59;;;;;;;78.95;42.42;;;11.90;99.90;;;;;;5054516;28;20051;-81
2022/10/15 07:01:24;;;;;;;76.15;39.95;;;11.90;99.90;;;;;;5038179;28;20403;-80
2022/10/15 07:03:50;;;;;;;80.53;40.25;;;11.90;99.90;;;;;;5038318;28;20048;-80
2022/10/15 07:06:16;;;;;;;80.78;42.25;;;11.90;99.90;;;;;;5054857;28;20045;-80
2022/10/15 07:08:43;;;;;;;78.95;40.85;;;11.90;99.90;;;;;;5054512;28;20044;-80
2022/10/15 07:11:09;;;;;;;78.70;41.30;;;12.00;99.90;;;;;;5053990;28;20049;-81
2022/10/15 07:13:35;;;;;;;81.88;39.50;;;12.00;99.90;;;;;;5037693;28;20040;-80
2022/10/15 07:16:05;;;;;;;74.38;41.72;;;12.00;99.90;;;;;;5037898;28;20080;-80
2022/10/15 07:18:31;;;;;;;72.22;39.50;;;12.00;99.90;;;;;;5037376;28;20037;-80
2022/10/15 07:20:57;;;;;;;80.07;41.40;;;12.00;99.90;;;;;;5053803;28;20040;-80
2022/10/15 07:23:22;;;;;;;77.00;40.15;;;12.00;99.90;;;;;;5037560;28;20509;-80
2022/10/15 07:25:48;;;;;;;80.63;43.17;;;12.10;99.90;;;;;;5037283;28;20130;-80
2022/10/15 07:28:13;;;;;;;72.35;39.58;;;12.10;99.90;;;;;;5037436;28;20451;-80
2022/10/15 07:30:39;;;;;;;78.45;41.92;;;12.10;99.90;;;;;;5054547;28;20037;-80
2022/10/15 07:33:05;;;;;;;73.43;39.85;;;12.10;99.90;;;;;;5037041;28;20073;-79
2022/10/15 07:35:30;;;;;;;76.65;40.97;;;12.10;99.90;;;;;;5053214;28;20037;-80
2022/10/15 07:37:59;;;;;;;71.28;39.13;;;12.10;99.90;;;;;;5053023;28;20080;-80
2022/10/15 07:40:25;;;;;;;77.82;40.67;;;12.20;99.90;;;;;;5053362;28;20072;-80
2022/10/15 07:42:55;;;;;;;76.97;39.42;;;12.20;99.90;;;;;;5052999;28;20475;-79
2022/10/15 07:45:20;;;;;;;81.47;42.17;;;12.20;99.90;;;;;;5052945;28;20103;-79
2022/10/15 07:47:46;;;;;;;75.78;42.45;;;12.30;99.90;;;;;;5053755;28;20036;-79
2022/10/15 07:50:11;;;;;;;76.07;40.53;;;12.30;99.90;;;;;;5052859;28;20041;-80
2022/10/15 07:52:37;;;;;;;77.22;40.35;;;12.30;99.90;;;;;;5052460;28;20480;-81
2022/10/15 07:55:03;;;;;;;76.65;40.38;;;12.40;99.90;;;;;;5036071;28;20040;-80
2022/10/15 07:57:28;;;;;;;77.53;41.53;;;12.50;99.90;;;;;;5052730;28;20418;-80
2022/10/15 07:59:54;;;;;;;74.88;39.58;;;12.50;99.90;;;;;;5036097;28;20029;-79
2022/10/15 08:02:20;;;;;;;72.32;40.50;;;12.60;99.90;;;;;;5036266;28;20520;-80
2022/10/15 08:04:45;;;;;;;75.85;39.55;;;12.70;99.90;;;;;;5035684;28;20047;-79
2022/10/15 08:07:11;;;;;;;72.75;39.80;;;12.70;99.90;;;;;;5053018;28;20032;-79
2022/10/15 08:09:37;;;;;;;72.88;37.50;;;12.80;99.90;;;;;;5052788;28;20052;-80
2022/10/15 08:12:03;;;;;;;71.82;38.70;;;12.80;99.90;;;;;;5036151;28;20048;-80
2022/10/15 08:14:28;;;;;;;70.15;38.45;;;12.90;99.90;;;;;;5052958;28;20041;-80
2022/10/15 08:16:54;;;;;;;68.90;37.20;;;12.90;99.90;;;;;;5052712;28;20407;-80
2022/10/15 08:19:19;;;;;;;66.55;39.00;;;13.00;99.90;;;;;;5053174;28;20036;-80
2022/10/15 08:21:45;;;;;;;73.20;38.33;;;13.00;99.90;;;;;;5035703;28;20033;-79
2022/10/15 08:24:11;;;;;;;66.57;37.15;;;13.00;99.90;;;;;;5052676;28;20033;-79
2022/10/15 08:26:37;;;;;;;67.90;37.65;;;13.10;99.90;;;;;;5053005;28;20040;-80
2022/10/15 08:29:03;;;;;;;64.53;39.17;;;13.10;99.90;;;;;;5052902;28;20037;-80
2022/10/15 08:31:30;;;;;;;65.78;36.78;;;13.10;99.90;;;;;;5052679;28;20079;-79
2022/10/15 08:33:59;;;;;;;64.25;37.47;;;13.10;99.90;;;;;;5035859;28;20037;-81
2022/10/15 08:36:24;;;;;;;65.68;37.72;;;13.20;99.90;;;;;;5036261;28;20045;-80
2022/10/15 08:38:50;;;;;;;64.85;37.75;;;13.20;99.90;;;;;;5052610;28;20056;-80
2022/10/15 08:41:43;;;;;;;62.70;36.25;;;13.20;99.90;;;;;;5043837;28;20133;-80
2022/10/15 08:44:25;;;;;;;64.88;35.78;;;13.20;99.90;;;;;;5052267;28;20040;-80
2022/10/15 08:47:13;;;;;;;66.45;36.30;;;13.30;99.90;;;;;;5052226;28;20052;-82
2022/10/15 08:49:54;;;;;;;64.03;36.85;;;13.30;99.90;;;;;;5025619;28;20426;-81
2022/10/15 08:52:41;;;;;;;70.20;38.70;;;13.30;99.90;;;;;;5051992;28;20501;-81
2022/10/15 08:55:10;;;;;;;71.22;39.00;;;13.40;99.90;;;;;;5052379;28;20033;-80
2022/10/15 08:57:43;;;;;;;68.13;38.75;;;13.40;99.90;;;;;;5052503;28;20510;-81
2022/10/15 09:00:16;;;;;;;71.15;40.22;;;13.40;99.90;;;;;;5038666;28;20037;-80
2022/10/15 09:03:04;;;;;;;66.53;37.72;;;13.40;99.90;;;;;;5051968;28;20041;-82
2022/10/15 09:06:04;;;;;;;67.05;38.30;;;13.40;99.90;;;;;;5052368;28;20037;-82
2022/10/15 09:08:38;;;;;;;62.22;37.72;;;13.40;99.90;;;;;;4978901;28;20044;-82
2022/10/15 09:11:15;;;;;;;58.85;35.28;;;13.50;99.90;;;;;;5042936;28;20080;-81
2022/10/15 09:13:43;;;;;;;56.40;33.75;;;13.40;99.90;;;;;;5051760;28;20033;-81
2022/10/15 09:16:23;;;;;;;59.05;35.47;;;13.40;99.90;;;;;;5035618;28;20040;-82
2022/10/15 09:18:51;;;;;;;57.92;35.42;;;13.40;99.90;;;;;;5051849;28;20060;-81
2022/10/15 09:21:18;;;;;;;62.28;36.70;;;13.40;99.90;;;;;;5051869;28;20075;-82
2022/10/15 09:23:44;;;;;;;62.60;37.88;;;13.40;99.90;;;;;;5052260;28;20052;-82
2022/10/15 09:26:20;;;;;;;58.55;34.70;;;13.40;99.90;;;;;;5035076;28;20033;-82
2022/10/15 09:29:07;;;;;;;53.28;33.78;;;13.40;99.90;;;;;;5035095;28;20041;-80
2022/10/15 09:31:42;;;;;;;48.40;30.20;;;13.40;99.90;;;;;;5035203;28;20064;-81
2022/10/15 09:34:19;;;;;;;51.78;30.08;;;13.40;99.90;;;;;;5035173;28;20048;-82
2022/10/15 09:36:57;;;;;;;51.42;32.35;;;13.50;99.90;;;;;;5052027;28;20052;-82
2022/10/15 09:39:57;;;;;;;51.47;29.95;;;13.40;99.90;;;;;;5051712;28;20592;-83
2022/10/15 09:42:29;;;;;;;45.05;28.83;;;13.40;99.90;;;;;;5031501;28;20521;-80
2022/10/15 09:45:02;;;;;;;43.38;27.67;;;13.40;99.90;;;;;;5051620;28;20040;-81
2022/10/15 09:47:31;;;;;;;47.80;29.73;;;13.40;99.90;;;;;;5034882;28;20499;-82
2022/10/15 09:49:57;;;;;;;47.83;28.45;;;13.30;99.90;;;;;;5051404;28;20052;-81
2022/10/15 09:52:28;;;;;;;48.53;30.40;;;13.30;99.90;;;;;;5051341;28;20033;-82
2022/10/15 09:55:15;;;;;;;52.67;31.20;;;13.30;99.90;;;;;;5034709;28;20033;-82
2022/10/15 09:57:47;;;;;;;49.00;28.48;;;13.20;99.90;;;;;;5051184;28;20033;-82
2022/10/15 10:00:14;;;;;;;50.78;29.60;;;13.20;99.90;;;;;;5020849;28;20173;-82
2022/10/15 10:02:39;;;;;;;52.70;29.77;;;13.20;99.90;;;;;;5051337;28;20501;-82
2022/10/15 10:05:29;;;;;;;52.30;29.17;;;13.20;99.90;;;;;;5034533;28;20044;-83
2022/10/15 10:08:18;;;;;;;54.63;30.27;;;13.20;99.90;;;;;;5035134;28;20037;-82
2022/10/15 10:10:59;;;;;;;53.80;30.88;;;13.20;99.90;;;;;;5034717;28;20048;-83
2022/10/15 10:13:38;;;;;;;55.17;30.73;;;13.20;99.90;;;;;;5050723;28;20406;-82
2022/10/15 10:16:08;;;;;;;53.42;29.30;;;13.20;99.90;;;;;;5051378;28;20041;-81
2022/10/15 10:18:36;;;;;;;57.50;32.22;;;13.40;99.90;;;;;;5051188;28;20029;-83
2022/10/15 10:21:05;;;;;;;53.38;29.60;;;13.30;99.90;;;;;;5051212;28;20041;-81
2022/10/15 10:23:36;;;;;;;48.17;27.52;;;13.30;99.90;;;;;;5034349;28;20517;-84
2022/10/15 10:26:05;;;;;;;44.70;26.55;;;13.40;99.90;;;;;;5051347;28;20078;-81
2022/10/15 10:28:39;;;;;;;42.67;25.33;;;13.40;99.90;;;;;;5034863;28;20402;-81
2022/10/15 10:31:07;;;;;;;41.85;25.08;;;13.40;99.90;;;;;;5034717;28;20116;-80
2022/10/15 10:33:38;;;;;;;41.05;24.63;;;13.40;99.90;;;;;;5051180;28;20064;-82
2022/10/15 10:36:06;;;;;;;39.25;23.08;;;13.40;99.90;;;;;;5034635;28;20487;-81
2022/10/15 10:38:39;;;;;;;38.63;22.50;;;13.50;99.90;;;;;;5051225;28;20045;-82
2022/10/15 10:41:10;;;;;;;34.50;21.27;;;13.60;99.90;;;;;;5032030;28;20509;-81
2022/10/15 10:43:52;;;;;;;33.22;20.40;;;13.70;99.90;;;;;;5051338;28;20037;-81
2022/10/15 10:46:20;;;;;;;32.72;19.35;;;13.80;99.90;;;;;;5051373;28;20445;-80
2022/10/15 10:48:47;;;;;;;29.67;18.33;;;13.90;99.90;;;;;;5034652;28;20041;-82
2022/10/15 10:51:14;;;;;;;29.40;18.38;;;14.00;99.90;;;;;;5034583;28;20080;-82
2022/10/15 10:54:01;;;;;;;28.73;17.60;;;14.00;99.90;;;;;;5051350;28;20041;-82
2022/10/15 10:56:34;;;;;;;27.20;17.13;;;14.10;99.90;;;;;;5053465;28;20041;-82
2022/10/15 10:59:12;;;;;;;24.92;17.55;;;14.10;99.90;;;;;;5051841;28;20041;-83
2022/10/15 11:01:38;;;;;;;27.02;16.23;;;14.20;99.90;;;;;;5050325;28;20490;-81
2022/10/15 11:04:08;;;;;;;24.95;16.75;;;14.10;99.90;;;;;;5050815;28;20098;-84
2022/10/15 11:06:59;;;;;;;22.50;16.05;;;14.20;99.90;;;;;;5034143;28;20048;-83
2022/10/15 11:09:49;;;;;;;22.52;15.70;;;14.20;99.90;;;;;;5052563;28;20065;-81
2022/10/15 11:12:39;;;;;;;21.08;14.35;;;14.20;99.90;;;;;;5036197;28;20073;-81
2022/10/15 11:15:13;;;;;;;21.52;14.50;;;14.30;99.90;;;;;;5054484;28;20037;-81
2022/10/15 11:17:53;;;;;;;24.67;15.85;;;14.40;99.90;;;;;;5055854;28;20413;-81
2022/10/15 11:20:23;;;;;;;24.25;15.18;;;14.50;99.90;;;;;;5056708;28;20041;-82
2022/10/15 11:23:10;;;;;;;22.52;14.88;;;14.60;99.90;;;;;;5038365;28;20041;-81
2022/10/15 11:26:01;;;;;;;22.23;14.60;;;14.70;99.90;;;;;;5054269;28;20060;-81
2022/10/15 11:29:01;;;;;;;19.00;13.63;;;14.70;99.90;;;;;;5037938;28;20044;-82
2022/10/15 11:31:48;;;;;;;23.55;14.45;;;14.80;99.90;;;;;;5054414;28;20533;-82
2022/10/15 11:34:23;;;;;;;18.90;12.98;;;14.90;99.90;;;;;;5038318;28;20052;-82
2022/10/15 11:36:57;;;;;;;18.17;13.35;;;14.80;99.90;;;;;;5054759;28;20522;-82
2022/10/15 11:39:47;;;;;;;23.95;15.05;;;14.80;99.90;;;;;;5054654;28;20076;-81
2022/10/15 11:42:34;;;;;;;20.58;14.20;;;14.80;99.90;;;;;;5054324;28;20053;-81
2022/10/15 11:45:26;;;;;;;22.40;15.13;;;14.90;99.90;;;;;;5054033;28;20557;-82
2022/10/15 11:47:58;;;;;;;22.67;15.57;;;14.90;99.90;;;;;;5037597;28;20071;-82
2022/10/15 11:50:55;;;;;;;19.77;13.82;;;15.00;99.90;;;;;;5054156;28;20068;-82
2022/10/15 11:53:45;;;;;;;20.63;14.07;;;14.90;99.90;;;;;;5053559;28;20072;-81
2022/10/15 11:56:34;;;;;;;19.98;14.57;;;14.90;99.90;;;;;;5037337;28;20048;-81
2022/10/15 11:59:05;;;;;;;21.70;13.60;;;14.90;99.90;;;;;;5037216;28;20033;-81
2022/10/15 12:01:41;;;;;;;22.23;15.38;;;15.00;99.90;;;;;;5053881;28;20169;-83
2022/10/15 12:04:27;;;;;;;20.98;14.65;;;15.10;99.90;;;;;;5053855;28;20045;-81
2022/10/15 12:06:56;;;;;;;22.85;14.77;;;15.10;99.90;;;;;;5053682;28;20037;-81
2022/10/15 12:09:32;;;;;;;20.80;15.25;;;15.20;99.90;;;;;;5037484;28;20051;-82
2022/10/15 12:12:04;;;;;;;20.58;15.07;;;15.20;99.90;;;;;;5054126;28;20091;-81
2022/10/15 12:14:56;;;;;;;22.55;15.27;;;15.20;99.90;;;;;;5037503;28;20041;-82
2022/10/15 12:17:50;;;;;;;20.88;15.05;;;15.20;99.90;;;;;;5053265;28;20047;-82
2022/10/15 12:20:19;;;;;;;20.73;15.23;;;15.20;99.90;;;;;;5037572;28;20060;-83
2022/10/15 12:22:51;;;;;;;19.23;14.38;;;15.20;99.90;;;;;;5053010;28;20064;-82
2022/10/15 12:25:42;;;;;;;19.40;14.10;;;15.30;99.90;;;;;;5053326;28;20522;-80
2022/10/15 12:28:07;;;;;;;20.85;14.40;;;15.30;99.90;;;;;;5046775;28;20045;-80
2022/10/15 12:30:35;;;;;;;18.17;14.02;;;15.30;99.90;;;;;;5036559;28;20562;-82
2022/10/15 12:33:21;;;;;;;18.45;13.75;;;15.40;99.90;;;;;;5053095;28;20048;-82
2022/10/15 12:35:54;;;;;;;17.88;12.77;;;15.40;99.90;;;;;;5038082;28;20135;-81
2022/10/15 12:38:35;;;;;;;18.73;13.43;;;15.50;99.90;;;;;;5036659;28;20033;-81
2022/10/15 12:41:12;;;;;;;16.63;11.75;;;15.40;99.90;;;;;;5039060;28;20033;-83
2022/10/15 12:43:41;;;;;;;16.67;12.25;;;15.40;99.90;;;;;;5047143;28;20047;-83
2022/10/15 12:46:09;;;;;;;16.58;13.15;;;15.30;99.90;;;;;;5053387;28;20033;-82